Time;durP1;ratioP1;P1;durP2;ratioP2;P2;SDS_P1;SDS_P2;PMS_P1;PMS_P2;Temp;Humidity;BMP_temperature;BMP_pressure;BME280_temperature;BME280_humidity;BME280_pressure;Samples;Min_cycle;Max_cycle;Signal;HPM_P1;HPM_P2
2023/12/27 00:01:12;;;;;;;;;;;;;;;;;;;;;
2023/12/27 00:26:06;;;;;;;40.20;21.77;;;;;;;;;;6182787;23;20028;-88
2023/12/27 00:32:49;;;;;;;37.22;22.40;;;;;;;;;;6194356;23;20023;-90
2023/12/27 00:43:10;;;;;;;35.70;18.20;;;;;;;;;;6184057;23;20092;-88
2023/12/27 00:53:19;;;;;;;31.35;16.13;;;;;;;;;;6183990;23;20490;-90
2023/12/27 00:56:15;;;;;;;24.63;15.45;;;;;;;;;;6163302;23;20043;-89
2023/12/27 01:13:47;;;;;;;22.23;11.17;;;;;;;;;;6064491;23;20054;-88
2023/12/27 01:20:25;;;;;;;22.30;9.00;;;;;;;;;;6153205;23;20040;-88
2023/12/27 01:23:09;;;;;;;18.10;8.20;;;;;;;;;;6152580;23;20070;-87
2023/12/27 01:25:53;;;;;;;21.83;8.60;;;;;;;;;;6153695;23;20021;-88
2023/12/27 01:28:48;;;;;;;23.15;9.23;;;;;;;;;;6152172;23;20016;-88
2023/12/27 01:31:32;;;;;;;21.50;7.97;;;;;;;;;;6151664;23;20036;-87
2023/12/27 01:34:21;;;;;;;17.42;6.75;;;;;;;;;;6152883;23;20025;-88
2023/12/27 01:37:24;;;;;;;18.05;7.53;;;;;;;;;;6151818;23;20017;-86
2023/12/27 01:40:20;;;;;;;15.55;6.22;;;;;;;;;;6151963;23;20036;-90
2023/12/27 01:43:09;;;;;;;21.20;7.18;;;;;;;;;;6151687;23;20067;-87
2023/12/27 01:46:20;;;;;;;15.60;7.05;;;;;;;;;;6151995;23;20416;-90
2023/12/27 01:49:13;;;;;;;17.95;7.47;;;;;;;;;;6151141;23;20024;-86
2023/12/27 01:52:10;;;;;;;15.45;7.05;;;;;;;;;;6152656;23;20020;-86
2023/12/27 01:58:14;;;;;;;19.48;8.20;;;;;;;;;;6151854;23;20473;-88
2023/12/27 02:01:01;;;;;;;16.02;7.63;;;;;;;;;;6150682;23;20018;-88
2023/12/27 02:03:47;;;;;;;25.08;7.85;;;;;;;;;;6151324;23;20024;-88
2023/12/27 02:06:32;;;;;;;16.63;7.32;;;;;;;;;;6151404;23;20347;-87
2023/12/27 02:09:40;;;;;;;21.50;7.53;;;;;;;;;;6151263;23;20023;-87
2023/12/27 02:12:33;;;;;;;12.98;6.18;;;;;;;;;;6151331;23;20071;-87
2023/12/27 02:15:35;;;;;;;18.50;7.25;;;;;;;;;;6151593;23;20024;-87
2023/12/27 02:18:45;;;;;;;18.20;5.88;;;;;;;;;;6160409;23;20024;-87
2023/12/27 02:21:35;;;;;;;19.15;5.90;;;;;;;;;;6160754;22;20485;-87
2023/12/27 02:24:38;;;;;;;24.70;5.72;;;;;;;;;;6160622;23;20056;-88
2023/12/27 02:27:25;;;;;;;16.77;5.18;;;;;;;;;;6160154;22;20069;-87
2023/12/27 02:30:23;;;;;;;18.05;5.43;;;;;;;;;;6160277;23;20359;-88
2023/12/27 02:33:10;;;;;;;25.60;7.25;;;;;;;;;;6160045;23;20028;-86
2023/12/27 02:35:54;;;;;;;22.95;5.60;;;;;;;;;;6159932;23;20405;-87
2023/12/27 02:38:44;;;;;;;21.38;5.97;;;;;;;;;;6160127;23;20051;-89
2023/12/27 02:41:31;;;;;;;23.15;5.35;;;;;;;;;;6160007;23;20023;-89
2023/12/27 02:44:15;;;;;;;21.30;5.53;;;;;;;;;;6182392;23;20158;-88
2023/12/27 02:47:01;;;;;;;15.27;5.00;;;;;;;;;;6160241;23;20043;-88
2023/12/27 02:50:06;;;;;;;17.92;6.13;;;;;;;;;;6159865;23;20024;-88
2023/12/27 02:52:53;;;;;;;29.20;7.65;;;;;;;;;;6182318;23;20035;-88
2023/12/27 02:55:43;;;;;;;35.60;8.25;;;;;;;;;;6160363;22;20020;-85
2023/12/27 02:58:27;;;;;;;29.25;7.63;;;;;;;;;;6159822;23;20106;-85
2023/12/27 03:01:11;;;;;;;22.42;9.55;;;;;;;;;;6160418;23;20083;-87
2023/12/27 03:04:04;;;;;;;31.20;10.10;;;;;;;;;;6159935;23;20058;-88
2023/12/27 03:06:48;;;;;;;28.65;10.32;;;;;;;;;;6182156;23;20378;-86
2023/12/27 03:09:31;;;;;;;34.45;10.80;;;;;;;;;;6159802;23;20196;-85
2023/12/27 03:12:16;;;;;;;46.20;11.85;;;;;;;;;;6159971;23;20023;-85
2023/12/27 03:15:00;;;;;;;42.65;11.63;;;;;;;;;;6159853;23;20020;-87
2023/12/27 03:17:43;;;;;;;34.10;11.63;;;;;;;;;;6150289;23;20070;-87
2023/12/27 03:20:27;;;;;;;30.45;12.02;;;;;;;;;;6152271;23;20016;-86
2023/12/27 03:23:17;;;;;;;25.15;11.88;;;;;;;;;;6150726;23;20105;-86
2023/12/27 03:26:09;;;;;;;33.40;12.02;;;;;;;;;;6152008;23;20076;-85
2023/12/27 03:29:03;;;;;;;34.28;12.70;;;;;;;;;;6151192;23;20021;-87
2023/12/27 03:31:47;;;;;;;29.92;13.30;;;;;;;;;;6150776;23;20024;-87
2023/12/27 03:34:31;;;;;;;38.78;15.70;;;;;;;;;;6151880;23;20529;-85
2023/12/27 03:37:15;;;;;;;40.08;15.02;;;;;;;;;;6150911;23;20052;-86
2023/12/27 03:39:59;;;;;;;37.83;15.32;;;;;;;;;;6151619;23;20048;-87
2023/12/27 03:42:43;;;;;;;39.35;15.68;;;;;;;;;;6152061;23;20111;-88
2023/12/27 03:45:27;;;;;;;47.78;17.02;;;;;;;;;;6151036;23;20048;-86
2023/12/27 03:48:11;;;;;;;43.25;16.85;;;;;;;;;;6151404;23;20517;-87
2023/12/27 03:50:55;;;;;;;30.45;16.63;;;;;;;;;;6151724;23;20124;-85
2023/12/27 03:53:38;;;;;;;37.33;15.70;;;;;;;;;;6152416;23;20071;-86
2023/12/27 03:56:23;;;;;;;33.08;16.08;;;;;;;;;;6150947;23;20036;-86
2023/12/27 03:59:09;;;;;;;43.88;17.02;;;;;;;;;;6152476;23;20478;-87
2023/12/27 04:01:53;;;;;;;45.58;18.02;;;;;;;;;;6152412;23;20718;-86
2023/12/27 04:04:41;;;;;;;41.65;16.80;;;;;;;;;;6150704;23;20064;-86
2023/12/27 04:07:25;;;;;;;45.33;17.05;;;;;;;;;;6150704;23;20059;-88
2023/12/27 04:10:09;;;;;;;43.00;16.55;;;;;;;;;;6152210;23;20577;-85
2023/12/27 04:12:53;;;;;;;40.97;16.17;;;;;;;;;;6150878;23;20028;-87
2023/12/27 04:15:37;;;;;;;31.52;15.48;;;;;;;;;;6152403;23;20474;-86
2023/12/27 04:18:21;;;;;;;39.60;15.93;;;;;;;;;;6150924;23;20477;-86
2023/12/27 04:21:08;;;;;;;35.97;15.57;;;;;;;;;;6151646;23;20017;-89
2023/12/27 04:23:52;;;;;;;55.03;17.05;;;;;;;;;;6150771;23;20025;-86
2023/12/27 04:26:37;;;;;;;42.70;16.08;;;;;;;;;;6151624;23;20071;-86
2023/12/27 04:29:21;;;;;;;43.45;17.85;;;;;;;;;;6152099;23;20020;-86
2023/12/27 04:32:05;;;;;;;32.78;14.82;;;;;;;;;;6152084;23;20024;-86
2023/12/27 04:34:49;;;;;;;56.83;15.68;;;;;;;;;;6151878;23;20024;-85
2023/12/27 04:37:33;;;;;;;36.03;15.00;;;;;;;;;;6151945;23;20033;-86
2023/12/27 04:40:18;;;;;;;33.95;15.25;;;;;;;;;;6152504;23;20035;-86
2023/12/27 04:43:02;;;;;;;50.08;16.55;;;;;;;;;;6152103;23;20336;-86
2023/12/27 04:45:45;;;;;;;33.80;14.40;;;;;;;;;;6151859;23;20020;-85
2023/12/27 04:48:30;;;;;;;34.80;15.32;;;;;;;;;;6153090;23;20024;-85
2023/12/27 04:51:14;;;;;;;49.70;14.88;;;;;;;;;;6153316;23;20056;-86
2023/12/27 04:53:58;;;;;;;42.92;15.45;;;;;;;;;;6151457;23;20044;-86
2023/12/27 04:56:43;;;;;;;36.88;16.92;;;;;;;;;;6151528;23;20020;-85
2023/12/27 04:59:37;;;;;;;41.25;15.23;;;;;;;;;;6151731;23;20036;-86
2023/12/27 05:02:21;;;;;;;58.95;19.17;;;;;;;;;;6151803;23;20027;-85
2023/12/27 05:05:06;;;;;;;51.47;16.33;;;;;;;;;;6151818;23;20083;-87
2023/12/27 05:07:50;;;;;;;45.95;16.67;;;;;;;;;;6151763;23;20067;-86
2023/12/27 05:10:34;;;;;;;49.65;16.70;;;;;;;;;;6153419;23;20071;-86
2023/12/27 05:13:18;;;;;;;35.97;15.02;;;;;;;;;;6153143;23;20398;-86
2023/12/27 05:16:07;;;;;;;54.47;19.15;;;;;;;;;;6155314;23;20037;-86
2023/12/27 05:18:51;;;;;;;47.13;17.45;;;;;;;;;;6160817;23;20028;-88
2023/12/27 05:21:36;;;;;;;36.22;15.38;;;;;;;;;;6160449;23;20067;-86
2023/12/27 05:24:20;;;;;;;34.35;15.70;;;;;;;;;;6160917;23;20043;-88
2023/12/27 05:27:04;;;;;;;36.45;15.35;;;;;;;;;;6160879;23;20023;-85
2023/12/27 05:29:48;;;;;;;33.38;15.52;;;;;;;;;;6161217;23;20105;-89
2023/12/27 05:32:36;;;;;;;46.40;16.27;;;;;;;;;;6160873;23;20023;-87
2023/12/27 05:35:20;;;;;;;28.27;13.27;;;;;;;;;;6160651;23;20075;-88
2023/12/27 05:38:04;;;;;;;33.67;14.35;;;;;;;;;;6160871;23;20086;-86
2023/12/27 05:40:48;;;;;;;28.40;13.50;;;;;;;;;;6160537;23;20492;-86
2023/12/27 05:43:33;;;;;;;27.23;13.90;;;;;;;;;;6160518;23;20288;-86
2023/12/27 05:46:16;;;;;;;39.22;14.52;;;;;;;;;;6183309;23;20142;-86
2023/12/27 05:49:01;;;;;;;40.90;15.55;;;;;;;;;;6182852;23;20020;-85
2023/12/27 05:51:44;;;;;;;42.05;14.80;;;;;;;;;;6182993;23;20017;-86
2023/12/27 05:54:28;;;;;;;36.33;15.15;;;;;;;;;;6160924;23;20119;-86
2023/12/27 05:57:12;;;;;;;26.33;14.23;;;;;;;;;;6160664;23;20063;-85
2023/12/27 05:59:56;;;;;;;28.05;13.35;;;;;;;;;;6161219;22;20024;-85
2023/12/27 06:02:40;;;;;;;32.90;15.15;;;;;;;;;;6160955;23;20032;-86
2023/12/27 06:05:25;;;;;;;31.48;14.35;;;;;;;;;;6161258;23;20020;-86
2023/12/27 06:08:11;;;;;;;34.47;12.85;;;;;;;;;;6161730;23;20020;-87
2023/12/27 06:10:55;;;;;;;32.05;12.88;;;;;;;;;;6161557;23;20020;-87
2023/12/27 06:13:39;;;;;;;29.05;13.27;;;;;;;;;;6160830;23;20389;-87
2023/12/27 06:16:24;;;;;;;27.65;12.15;;;;;;;;;;6161272;23;20078;-85
2023/12/27 06:19:07;;;;;;;51.10;16.67;;;;;;;;;;6182975;23;20016;-88
2023/12/27 06:21:54;;;;;;;31.02;16.38;;;;;;;;;;6160978;23;20020;-85
2023/12/27 06:24:38;;;;;;;381.35;37.35;;;;;;;;;;6161209;23;20023;-87
2023/12/27 06:27:25;;;;;;;30.67;16.13;;;;;;;;;;6183796;23;20102;-88
2023/12/27 06:30:12;;;;;;;26.92;13.38;;;;;;;;;;6161326;23;20078;-87
2023/12/27 06:32:59;;;;;;;22.17;11.60;;;;;;;;;;6161308;23;20074;-88
2023/12/27 06:35:49;;;;;;;23.50;11.85;;;;;;;;;;6160980;23;20020;-87
2023/12/27 06:38:33;;;;;;;22.85;9.75;;;;;;;;;;6161000;23;20017;-88
2023/12/27 06:41:18;;;;;;;29.30;11.52;;;;;;;;;;6161161;23;20056;-87
2023/12/27 06:44:02;;;;;;;44.22;11.98;;;;;;;;;;6160913;23;20024;-90
2023/12/27 06:46:46;;;;;;;34.80;12.27;;;;;;;;;;6161512;23;20070;-88
2023/12/27 06:49:30;;;;;;;24.55;10.45;;;;;;;;;;6161351;23;20023;-86
2023/12/27 06:52:14;;;;;;;35.47;10.75;;;;;;;;;;6160568;23;20070;-87
2023/12/27 06:55:01;;;;;;;51.42;12.32;;;;;;;;;;6160543;23;20028;-88
2023/12/27 06:57:45;;;;;;;80.40;14.38;;;;;;;;;;6161183;23;20135;-86
2023/12/27 07:00:29;;;;;;;32.85;11.65;;;;;;;;;;6160988;23;20101;-88
2023/12/27 07:03:38;;;;;;;119.95;15.80;;;;;;;;;;6163020;23;20401;-88
2023/12/27 07:06:27;;;;;;;178.52;20.88;;;;;;;;;;6160842;23;20389;-88
2023/12/27 07:09:15;;;;;;;46.88;13.00;;;;;;;;;;6160030;23;20079;-86
2023/12/27 07:12:01;;;;;;;63.15;16.15;;;;;;;;;;6159850;23;20055;-86
2023/12/27 07:14:45;;;;;;;49.05;15.00;;;;;;;;;;6159845;23;20454;-87
2023/12/27 07:17:29;;;;;;;32.83;13.20;;;;;;;;;;6160421;23;20078;-87
2023/12/27 07:20:14;;;;;;;46.35;13.27;;;;;;;;;;6182879;23;20493;-87
2023/12/27 07:22:58;;;;;;;40.97;12.70;;;;;;;;;;6160642;22;20066;-87
2023/12/27 07:25:42;;;;;;;25.75;12.73;;;;;;;;;;6182936;23;20070;-88
2023/12/27 07:28:33;;;;;;;27.23;15.00;;;;;;;;;;6159969;23;20024;-88
2023/12/27 07:31:18;;;;;;;73.97;16.20;;;;;;;;;;6160458;23;20374;-88
2023/12/27 07:34:02;;;;;;;51.03;17.20;;;;;;;;;;6160371;23;20070;-88
2023/12/27 07:36:46;;;;;;;38.45;14.10;;;;;;;;;;6160404;23;20101;-88
2023/12/27 07:39:32;;;;;;;36.88;12.32;;;;;;;;;;6160175;23;20016;-86
2023/12/27 07:42:27;;;;;;;22.30;10.48;;;;;;;;;;6160633;23;20320;-87
2023/12/27 07:45:29;;;;;;;32.70;12.80;;;;;;;;;;6160404;23;20023;-88
2023/12/27 07:48:19;;;;;;;34.65;16.20;;;;;;;;;;6160265;23;20146;-89
2023/12/27 07:51:07;;;;;;;42.70;15.48;;;;;;;;;;6159640;23;20051;-88
2023/12/27 07:53:54;;;;;;;52.63;14.35;;;;;;;;;;6159462;23;20099;-86
2023/12/27 07:56:50;;;;;;;23.48;11.23;;;;;;;;;;6158294;23;20505;-88
2023/12/27 07:59:35;;;;;;;35.50;12.35;;;;;;;;;;6158337;23;20066;-87
2023/12/27 08:05:34;;;;;;;23.38;11.40;;;;;;;;;;6180754;23;20335;-88
2023/12/27 08:08:25;;;;;;;28.38;10.85;;;;;;;;;;6158482;23;20023;-87
2023/12/27 08:11:10;;;;;;;23.23;10.93;;;;;;;;;;6181142;23;20050;-86
2023/12/27 08:14:04;;;;;;;27.25;10.70;;;;;;;;;;6157937;23;20097;-87
2023/12/27 08:16:51;;;;;;;25.05;11.30;;;;;;;;;;6149326;23;20083;-87
2023/12/27 08:20:06;;;;;;;25.83;11.57;;;;;;;;;;6150163;23;20020;-86
2023/12/27 08:23:07;;;;;;;18.35;10.50;;;;;;;;;;6150181;23;20049;-89
2023/12/27 08:25:59;;;;;;;27.83;12.18;;;;;;;;;;6150337;23;20044;-87
2023/12/27 08:28:43;;;;;;;26.48;12.32;;;;;;;;;;6150208;23;20025;-88
2023/12/27 08:31:30;;;;;;;28.27;11.95;;;;;;;;;;6149853;23;20386;-87
2023/12/27 08:34:14;;;;;;;23.95;11.88;;;;;;;;;;6149774;23;20162;-86
2023/12/27 08:36:58;;;;;;;27.60;10.48;;;;;;;;;;6151664;23;20020;-87
2023/12/27 08:39:43;;;;;;;25.05;11.35;;;;;;;;;;6150830;23;20016;-89
2023/12/27 08:42:32;;;;;;;21.30;10.25;;;;;;;;;;6150881;23;20066;-89
2023/12/27 08:45:25;;;;;;;25.52;11.43;;;;;;;;;;6152190;23;20070;-91
2023/12/27 08:48:08;;;;;;;21.13;10.88;;;;;;;;;;6151080;23;20024;-89
2023/12/27 08:51:03;;;;;;;19.90;10.15;;;;;;;;;;6153072;23;20028;-89
2023/12/27 08:53:52;;;;;;;25.92;11.93;;;;;;;;;;6155421;23;20029;-89
2023/12/27 08:56:37;;;;;;;33.40;12.80;;;;;;;;;;6147226;23;20020;-85
2023/12/27 09:03:10;;;;;;;44.67;15.93;;;;;;;;;;6154364;23;20387;-90
2023/12/27 09:05:56;;;;;;;31.50;13.60;;;;;;;;;;6151177;23;20024;-90
2023/12/27 09:08:40;;;;;;;41.67;14.63;;;;;;;;;;6151039;23;20024;-88
2023/12/27 09:11:40;;;;;;;25.67;12.68;;;;;;;;;;6151396;23;20044;-90
2023/12/27 09:14:23;;;;;;;26.65;12.52;;;;;;;;;;6157006;23;20024;-89
2023/12/27 09:17:08;;;;;;;31.50;13.38;;;;;;;;;;6159201;23;20028;-91
2023/12/27 09:19:53;;;;;;;27.58;12.07;;;;;;;;;;6157533;23;20012;-90
2023/12/27 09:22:38;;;;;;;24.60;11.63;;;;;;;;;;6155781;23;20044;-90
2023/12/27 09:25:24;;;;;;;23.67;12.05;;;;;;;;;;6155301;23;20025;-91
2023/12/27 09:28:27;;;;;;;31.00;11.90;;;;;;;;;;6162211;23;20052;-90
2023/12/27 09:38:54;;;;;;;25.80;11.23;;;;;;;;;;6301400;22;20061;-87
2023/12/27 09:56:15;;;;;;;25.80;12.52;;;;;;;;;;6215434;23;20070;-87
2023/12/27 09:59:00;;;;;;;23.85;11.57;;;;;;;;;;6215899;23;20047;-90
2023/12/27 10:01:48;;;;;;;19.23;10.90;;;;;;;;;;6252948;22;20069;-89
2023/12/27 10:05:06;;;;;;;24.05;11.05;;;;;;;;;;6273493;22;20028;-90
2023/12/27 10:07:50;;;;;;;18.90;9.90;;;;;;;;;;6273587;22;20020;-89
2023/12/27 10:10:42;;;;;;;18.10;9.48;;;;;;;;;;6318943;22;20468;-90
2023/12/27 10:13:27;;;;;;;18.05;9.13;;;;;;;;;;6318906;22;20045;-89
2023/12/27 10:16:11;;;;;;;15.55;7.50;;;;;;;;;;6319021;22;20021;-88
2023/12/27 10:18:55;;;;;;;12.38;6.90;;;;;;;;;;6318823;22;20014;-91
2023/12/27 10:25:20;;;;;;;11.52;5.93;;;;;;;;;;6342763;22;20009;-93
2023/12/27 10:46:13;;;;;;;11.00;5.50;;;;;;;;;;6189050;22;20012;-90
2023/12/27 10:49:02;;;;;;;13.38;6.72;;;;;;;;;;6164676;23;20016;-88
2023/12/27 10:51:58;;;;;;;14.20;6.65;;;;;;;;;;6185862;23;20174;-89
2023/12/27 10:54:45;;;;;;;12.52;7.20;;;;;;;;;;6239285;22;20086;-90
2023/12/27 10:57:31;;;;;;;21.92;8.10;;;;;;;;;;6242052;22;20328;-89
2023/12/27 11:00:18;;;;;;;13.88;6.95;;;;;;;;;;6241145;22;20104;-88
2023/12/27 11:10:10;;;;;;;12.40;7.67;;;;;;;;;;6154257;23;20008;-89
2023/12/27 11:12:58;;;;;;;13.88;7.78;;;;;;;;;;6241033;22;20045;-89
2023/12/27 11:15:44;;;;;;;14.90;9.00;;;;;;;;;;6240956;22;20525;-88
2023/12/27 11:18:30;;;;;;;18.23;8.60;;;;;;;;;;6240361;22;20043;-91
2023/12/27 11:21:15;;;;;;;18.08;9.68;;;;;;;;;;6240687;22;20032;-89
2023/12/27 11:31:08;;;;;;;15.27;7.95;;;;;;;;;;6153116;23;20080;-90
2023/12/27 11:33:52;;;;;;;22.17;11.63;;;;;;;;;;6260356;22;20435;-91
2023/12/27 11:36:36;;;;;;;28.05;11.50;;;;;;;;;;6181767;23;20516;-89
2023/12/27 11:39:23;;;;;;;28.80;13.63;;;;;;;;;;6181540;23;20462;-89
2023/12/27 11:42:10;;;;;;;27.52;11.30;;;;;;;;;;6270750;22;20461;-88
2023/12/27 11:44:56;;;;;;;25.77;11.68;;;;;;;;;;6270875;22;20023;-88
2023/12/27 11:47:43;;;;;;;32.40;13.40;;;;;;;;;;6182057;23;20067;-90
2023/12/27 11:50:31;;;;;;;30.42;12.85;;;;;;;;;;6182047;23;20092;-88
2023/12/27 11:53:15;;;;;;;18.55;10.98;;;;;;;;;;6182400;23;20020;-88
2023/12/27 11:56:07;;;;;;;18.95;10.35;;;;;;;;;;6182225;23;20095;-90
2023/12/27 11:58:51;;;;;;;19.25;9.68;;;;;;;;;;6271040;22;20020;-89
2023/12/27 12:01:39;;;;;;;17.70;9.23;;;;;;;;;;6271989;22;20026;-90
2023/12/27 12:08:05;;;;;;;12.00;7.90;;;;;;;;;;6183812;23;20077;-90
2023/12/27 12:11:18;;;;;;;21.10;10.10;;;;;;;;;;6275157;22;20042;-90
2023/12/27 12:14:04;;;;;;;43.17;14.23;;;;;;;;;;6185884;22;20060;-89
2023/12/27 12:16:48;;;;;;;10.90;7.28;;;;;;;;;;6270517;22;20044;-90
2023/12/27 12:19:33;;;;;;;14.25;7.97;;;;;;;;;;6271067;22;20023;-90
2023/12/27 12:22:17;;;;;;;18.52;7.93;;;;;;;;;;6271463;22;20011;-89
2023/12/27 12:25:06;;;;;;;20.50;8.80;;;;;;;;;;6271047;22;20063;-89
2023/12/27 12:27:56;;;;;;;16.95;7.95;;;;;;;;;;6270325;22;20020;-89
2023/12/27 12:30:47;;;;;;;16.95;7.60;;;;;;;;;;6270493;22;20482;-89
2023/12/27 12:33:31;;;;;;;18.17;6.47;;;;;;;;;;6270827;22;20436;-86
2023/12/27 12:36:16;;;;;;;11.40;6.03;;;;;;;;;;6270760;22;20135;-92
2023/12/27 12:46:11;;;;;;;13.05;6.05;;;;;;;;;;6183199;23;20127;-88
2023/12/27 12:48:55;;;;;;;12.70;6.07;;;;;;;;;;6270527;22;20039;-86
2023/12/27 12:51:39;;;;;;;13.48;7.38;;;;;;;;;;6272587;22;20113;-86
2023/12/27 12:54:23;;;;;;;15.35;6.25;;;;;;;;;;6271941;22;20025;-86
2023/12/27 12:57:07;;;;;;;10.35;5.25;;;;;;;;;;6185281;23;20021;-87
2023/12/27 13:03:43;;;;;;;15.90;5.68;;;;;;;;;;6185194;23;20017;-86
2023/12/27 13:06:26;;;;;;;13.35;5.60;;;;;;;;;;6184338;23;20032;-88
2023/12/27 13:09:14;;;;;;;13.55;5.35;;;;;;;;;;6272673;22;20134;-85
2023/12/27 13:12:04;;;;;;;11.98;5.95;;;;;;;;;;6274817;22;20023;-86
2023/12/27 13:14:54;;;;;;;10.20;5.30;;;;;;;;;;6271711;22;20474;-86
2023/12/27 13:21:11;;;;;;;13.18;5.68;;;;;;;;;;6189935;23;20076;-86
2023/12/27 13:23:58;;;;;;;13.38;5.40;;;;;;;;;;6274871;22;20016;-90
2023/12/27 13:26:42;;;;;;;16.73;5.72;;;;;;;;;;6275214;22;20620;-89
2023/12/27 13:29:26;;;;;;;11.55;5.50;;;;;;;;;;6275103;22;20016;-89
2023/12/27 13:32:13;;;;;;;10.88;5.43;;;;;;;;;;6275077;22;20024;-89
2023/12/27 13:34:57;;;;;;;10.80;6.82;;;;;;;;;;6275430;22;20043;-89
2023/12/27 13:45:30;;;;;;;11.95;4.88;;;;;;;;;;6187017;23;20019;-88
2023/12/27 13:48:34;;;;;;;13.00;5.10;;;;;;;;;;6275051;22;20074;-88
2023/12/27 13:51:21;;;;;;;12.30;5.18;;;;;;;;;;6276171;22;20462;-89
2023/12/27 13:54:14;;;;;;;12.55;5.80;;;;;;;;;;6274266;22;20024;-89
2023/12/27 13:57:00;;;;;;;7.38;4.97;;;;;;;;;;6275060;22;20016;-89
2023/12/27 13:59:45;;;;;;;8.85;4.47;;;;;;;;;;6274361;22;20020;-89
2023/12/27 14:02:29;;;;;;;12.10;5.18;;;;;;;;;;6273596;22;20024;-87
2023/12/27 14:05:13;;;;;;;15.73;5.28;;;;;;;;;;6273650;22;20024;-88
2023/12/27 14:07:58;;;;;;;11.68;4.25;;;;;;;;;;6274321;22;20023;-88
2023/12/27 14:14:23;;;;;;;9.27;5.05;;;;;;;;;;6188380;23;20028;-90
2023/12/27 14:17:07;;;;;;;10.68;4.57;;;;;;;;;;6277156;22;20059;-88
2023/12/27 14:19:52;;;;;;;7.93;4.50;;;;;;;;;;6276225;22;20016;-89
2023/12/27 14:22:36;;;;;;;8.10;4.13;;;;;;;;;;6274333;22;20362;-89
2023/12/27 14:25:20;;;;;;;12.60;4.63;;;;;;;;;;6274600;22;20504;-88
2023/12/27 14:28:08;;;;;;;12.65;4.22;;;;;;;;;;6185737;23;20478;-88
2023/12/27 14:30:53;;;;;;;10.60;4.28;;;;;;;;;;6273542;22;20490;-88
2023/12/27 14:33:37;;;;;;;12.68;4.40;;;;;;;;;;6272547;22;20032;-88
2023/12/27 14:36:20;;;;;;;13.60;4.32;;;;;;;;;;6271881;22;20073;-88
2023/12/27 14:39:05;;;;;;;14.10;4.47;;;;;;;;;;6273515;22;20073;-88
2023/12/27 14:41:49;;;;;;;10.15;4.60;;;;;;;;;;6273393;22;20051;-88
2023/12/27 14:44:37;;;;;;;17.23;4.78;;;;;;;;;;6275280;22;20028;-91
2023/12/27 14:47:21;;;;;;;8.65;3.97;;;;;;;;;;6272974;22;20024;-88
2023/12/27 14:50:06;;;;;;;7.30;4.13;;;;;;;;;;6272417;22;20348;-88
2023/12/27 14:52:50;;;;;;;10.85;4.10;;;;;;;;;;6271665;22;20140;-88
2023/12/27 14:55:34;;;;;;;7.63;3.78;;;;;;;;;;6272720;22;20019;-88
2023/12/27 14:58:18;;;;;;;8.38;3.85;;;;;;;;;;6272664;22;20473;-90
2023/12/27 15:01:02;;;;;;;11.10;4.25;;;;;;;;;;6273165;22;20066;-88
2023/12/27 15:03:45;;;;;;;9.63;3.80;;;;;;;;;;6272915;22;20063;-90
2023/12/27 15:06:30;;;;;;;7.93;4.07;;;;;;;;;;6271654;22;20512;-90
2023/12/27 15:09:16;;;;;;;6.60;3.58;;;;;;;;;;6271565;22;20071;-90
2023/12/27 15:12:00;;;;;;;8.93;4.10;;;;;;;;;;6271725;22;20351;-90
2023/12/27 15:18:13;;;;;;;17.25;8.32;;;;;;;;;;6185740;23;20008;-90
2023/12/27 15:21:02;;;;;;;18.48;10.68;;;;;;;;;;6272056;22;20390;-89
2023/12/27 15:24:11;;;;;;;8.90;4.30;;;;;;;;;;6271785;22;20016;-88
2023/12/27 15:26:57;;;;;;;6.72;3.90;;;;;;;;;;6271803;22;20055;-90
2023/12/27 15:29:44;;;;;;;7.32;3.25;;;;;;;;;;6273642;22;20339;-89
2023/12/27 15:32:43;;;;;;;9.57;4.07;;;;;;;;;;6287908;22;20035;-91
2023/12/27 15:35:28;;;;;;;8.63;3.80;;;;;;;;;;6318862;22;20104;-91
2023/12/27 15:38:22;;;;;;;7.38;3.90;;;;;;;;;;6319164;22;20017;-90
2023/12/27 15:44:48;;;;;;;9.95;5.00;;;;;;;;;;6343039;22;20040;-89
2023/12/27 15:47:48;;;;;;;6.00;4.50;;;;;;;;;;6318791;22;20026;-88
2023/12/27 15:50:51;;;;;;;5.28;3.33;;;;;;;;;;6319638;22;20025;-89
2023/12/27 15:53:36;;;;;;;7.90;4.03;;;;;;;;;;6318432;22;20033;-89
2023/12/27 15:57:01;;;;;;;3.42;1.83;;;;;;;;;;6317980;22;20018;-88
2023/12/27 16:07:06;;;;;;;5.18;2.80;;;;;;;;;;6338099;22;20349;-86
2023/12/27 16:10:05;;;;;;;2.30;1.58;;;;;;;;;;6338927;22;20018;-87
2023/12/27 16:12:52;;;;;;;7.82;2.35;;;;;;;;;;6315209;22;20558;-86
2023/12/27 16:15:36;;;;;;;1.70;1.60;;;;;;;;;;6315965;22;20084;-87
2023/12/27 16:18:27;;;;;;;1.27;1.17;;;;;;;;;;6338582;22;20013;-86
2023/12/27 16:21:13;;;;;;;1.13;1.02;;;;;;;;;;6338034;22;20017;-85
2023/12/27 16:24:10;;;;;;;49.63;23.05;;;;;;;;;;6339374;22;20053;-87
2023/12/27 16:26:54;;;;;;;2.38;2.17;;;;;;;;;;6317659;22;20333;-85
2023/12/27 16:29:43;;;;;;;3.17;2.40;;;;;;;;;;6340665;22;20057;-86
2023/12/27 16:32:27;;;;;;;2.58;2.38;;;;;;;;;;6316430;22;20017;-86
2023/12/27 16:35:15;;;;;;;1.55;1.45;;;;;;;;;;6318442;22;20017;-88
2023/12/27 16:37:59;;;;;;;3.58;1.60;;;;;;;;;;6341127;22;20018;-86
2023/12/27 16:40:43;;;;;;;2.90;1.50;;;;;;;;;;6317445;22;20010;-86
2023/12/27 16:43:29;;;;;;;1.15;1.15;;;;;;;;;;6318224;22;20018;-87
2023/12/27 16:46:14;;;;;;;2.15;1.42;;;;;;;;;;6319016;22;20021;-87
2023/12/27 16:48:58;;;;;;;3.95;1.48;;;;;;;;;;6318261;22;20464;-88
2023/12/27 16:51:42;;;;;;;2.58;1.60;;;;;;;;;;6317379;22;20074;-87
2023/12/27 16:54:44;;;;;;;4.75;1.92;;;;;;;;;;6316764;22;20412;-85
2023/12/27 16:57:31;;;;;;;3.78;1.70;;;;;;;;;;6317148;22;20345;-85
2023/12/27 17:00:15;;;;;;;7.63;2.42;;;;;;;;;;6317747;22;20017;-86
2023/12/27 17:03:00;;;;;;;8.13;2.20;;;;;;;;;;6341049;22;20060;-87
2023/12/27 17:05:44;;;;;;;6.35;2.00;;;;;;;;;;6317770;22;20018;-87
2023/12/27 17:08:28;;;;;;;2.75;1.90;;;;;;;;;;6318240;22;20057;-85
2023/12/27 17:11:12;;;;;;;4.43;2.60;;;;;;;;;;6317075;22;20459;-87
2023/12/27 17:13:56;;;;;;;8.32;2.15;;;;;;;;;;6317657;22;20053;-87
2023/12/27 17:16:40;;;;;;;95.40;33.40;;;;;;;;;;6319270;22;20037;-88
2023/12/27 17:19:24;;;;;;;16.35;8.90;;;;;;;;;;6340786;22;20018;-87
2023/12/27 17:22:08;;;;;;;9.98;6.32;;;;;;;;;;6318434;22;20087;-87
2023/12/27 17:24:53;;;;;;;11.23;4.25;;;;;;;;;;6318771;22;20018;-85
2023/12/27 17:27:40;;;;;;;12.55;4.38;;;;;;;;;;6317737;22;20025;-88
2023/12/27 17:30:26;;;;;;;16.00;5.35;;;;;;;;;;6318939;22;20060;-87
2023/12/27 17:33:10;;;;;;;10.77;3.88;;;;;;;;;;6341824;22;20081;-87
2023/12/27 17:36:04;;;;;;;10.60;4.50;;;;;;;;;;6317282;22;20080;-88
2023/12/27 17:38:47;;;;;;;15.15;4.13;;;;;;;;;;6319214;22;20017;-87
2023/12/27 17:45:15;;;;;;;7.70;2.88;;;;;;;;;;6340379;22;20093;-86
2023/12/27 17:47:59;;;;;;;9.68;3.83;;;;;;;;;;6317165;22;20017;-88
2023/12/27 17:50:44;;;;;;;15.43;3.08;;;;;;;;;;6319035;22;20064;-86
2023/12/27 17:53:41;;;;;;;8.07;3.05;;;;;;;;;;6317701;22;20017;-87
2023/12/27 17:56:46;;;;;;;;;;;;;;;;;;;;;
2023/12/27 17:59:34;;;;;;;15.43;3.35;;;;;;;;;;6339874;22;20014;-88
2023/12/27 18:02:18;;;;;;;12.23;4.28;;;;;;;;;;6318359;22;20334;-87
2023/12/27 18:05:22;;;;;;;9.77;3.13;;;;;;;;;;6316745;22;20017;-85
2023/12/27 18:08:14;;;;;;;6.32;2.60;;;;;;;;;;6316676;22;20053;-86
2023/12/27 18:10:58;;;;;;;11.20;3.33;;;;;;;;;;6316056;22;20051;-86
2023/12/27 18:13:42;;;;;;;11.93;2.90;;;;;;;;;;6317133;22;20072;-87
2023/12/27 18:16:29;;;;;;;8.40;3.00;;;;;;;;;;6316295;22;20064;-87
2023/12/27 18:19:19;;;;;;;11.02;3.45;;;;;;;;;;6316199;22;20498;-87
2023/12/27 18:22:03;;;;;;;11.65;3.85;;;;;;;;;;6315197;22;20049;-87
2023/12/27 18:24:49;;;;;;;17.88;3.72;;;;;;;;;;6317211;22;20036;-91
2023/12/27 18:27:46;;;;;;;16.77;3.30;;;;;;;;;;6318950;22;20387;-87
2023/12/27 18:37:26;;;;;;;15.30;3.47;;;;;;;;;;6342281;22;20452;-85
2023/12/27 18:40:13;;;;;;;10.32;2.67;;;;;;;;;;6336659;22;20468;-87
2023/12/27 18:42:57;;;;;;;11.48;3.30;;;;;;;;;;6336568;22;20089;-85
2023/12/27 18:45:41;;;;;;;8.55;3.35;;;;;;;;;;6336144;22;20021;-84
2023/12/27 18:48:25;;;;;;;12.77;2.72;;;;;;;;;;6313202;22;20471;-85
2023/12/27 18:51:11;;;;;;;33.90;13.68;;;;;;;;;;6312828;22;20110;-84
2023/12/27 18:53:56;;;;;;;41.45;17.63;;;;;;;;;;6313199;22;20022;-85
2023/12/27 18:56:45;;;;;;;28.58;10.57;;;;;;;;;;6334506;22;20022;-84
2023/12/27 18:59:30;;;;;;;58.38;25.55;;;;;;;;;;6313683;22;20490;-85
2023/12/27 19:02:14;;;;;;;46.97;19.52;;;;;;;;;;6313153;22;20017;-86
2023/12/27 19:04:58;;;;;;;55.58;22.90;;;;;;;;;;6334619;22;20057;-84
2023/12/27 19:07:42;;;;;;;10.55;4.80;;;;;;;;;;6334888;22;20051;-83
2023/12/27 19:10:26;;;;;;;10.70;4.10;;;;;;;;;;6313424;22;20459;-85
2023/12/27 19:13:10;;;;;;;9.50;3.60;;;;;;;;;;6337397;22;20021;-85
2023/12/27 19:15:59;;;;;;;9.38;2.83;;;;;;;;;;6336470;22;20038;-85
2023/12/27 19:18:45;;;;;;;13.02;3.80;;;;;;;;;;6313471;22;20064;-84
2023/12/27 19:21:31;;;;;;;10.25;3.47;;;;;;;;;;6314591;22;20017;-90
2023/12/27 19:24:16;;;;;;;14.68;3.58;;;;;;;;;;6319737;22;20020;-89
2023/12/27 19:27:00;;;;;;;11.18;3.10;;;;;;;;;;6318109;22;20064;-88
2023/12/27 19:29:44;;;;;;;24.75;5.75;;;;;;;;;;6318625;22;20363;-89